Pagina principale
METAR-TAF:

METAR-TAF

Aeroporti :

Aeroporto di Bergamo-Orio al Serio

Bergamo, Italia

latitudine: 45-40N, longitudine: 009-42E, altezza: 238 m

Osservazione

Il bollettino è stato emesso 35 minuti fa, alle 14:20 UTC
Vento 7 kt da ovest, variando fra sud-ovest e nord-ovest
Temperature 21°C
Umidità 56%
Pressione 1010 hPa
Visibilità 10 km o più
nessuna nube inferiore a 1500 m e nessun cumulonembo

METAR: LIME 151420Z 26007KT 230V320 CAVOK 21/12 Q1010 NOSIG

Ora: 16:55 (14:55 UTC)

Previsione

Il bollettino è stato emesso 3 ore e 55 minuti fa, alle 11:00 UTC
Previsione valida dal 15 alle 12 UTC al 16 alle 12 UTC
Vento 10 kt da ovest
Visibilità 10 km o più
Poco nuvoloso ad un'altezza di 7000 ft
Evoluzione graduale
dal 15 alle 14 UTC al 15 alle 16 UTC
Vento 5 kt da direzioni variabili
Evoluzione graduale
dal 16 alle 04 UTC al 16 alle 06 UTC
Vento 10 kt da nord/nord-ovest

TAF: LIME 151100Z 1512/1612 27010KT 9999 FEW070 BECMG 1514/1516 VRB05KT BECMG 1604/1606 34010KT

Osservazioni e previsioni meteorologiche di più di 4000 aeroporti (messaggi METAR e TAF).

Le stazioni disponibili sono rappresentate dai dischi gialli e rossi sulla carta.

Puntare il mouse per vedere il nome della stazione.

Clicca sopra per visualizzare le osservazioni e previsioni meteorologiche.

Per cambiare la mappa : fare clic sui pulsanti verdi con una croce nera per ingrandire, il pulsante verde con un trattino per diminuire, o sulla freccia verde per le mappe adiacenti.


METAR-TAF: